sensor_id;sensor_type;location;lat;lon;timestamp;P1;durP1;ratioP1;P2;durP2;ratioP2
51288;SDS011;37372;52.294;5.152;2022-12-17T00:00:20;72.85;;;29.13;;
51288;SDS011;37372;52.294;5.152;2022-12-17T00:03:04;76.38;;;26.83;;
51288;SDS011;37372;52.294;5.152;2022-12-17T00:05:50;96.70;;;27.95;;
51288;SDS011;37372;52.294;5.152;2022-12-17T00:08:35;62.38;;;27.42;;
51288;SDS011;37372;52.294;5.152;2022-12-17T00:11:18;73.63;;;27.35;;
51288;SDS011;37372;52.294;5.152;2022-12-17T00:14:03;68.32;;;27.40;;
51288;SDS011;37372;52.294;5.152;2022-12-17T00:16:47;78.20;;;30.30;;
51288;SDS011;37372;52.294;5.152;2022-12-17T00:19:31;78.47;;;27.95;;
51288;SDS011;37372;52.294;5.152;2022-12-17T00:22:15;67.15;;;24.60;;
51288;SDS011;37372;52.294;5.152;2022-12-17T00:24:59;68.97;;;26.20;;
51288;SDS011;37372;52.294;5.152;2022-12-17T00:27:43;71.25;;;28.05;;
51288;SDS011;37372;52.294;5.152;2022-12-17T00:30:28;85.35;;;26.40;;
51288;SDS011;37372;52.294;5.152;2022-12-17T00:33:12;65.63;;;25.67;;
51288;SDS011;37372;52.294;5.152;2022-12-17T00:35:56;69.38;;;25.15;;
51288;SDS011;37372;52.294;5.152;2022-12-17T00:38:40;83.95;;;26.80;;
51288;SDS011;37372;52.294;5.152;2022-12-17T00:41:23;73.57;;;26.40;;
51288;SDS011;37372;52.294;5.152;2022-12-17T00:44:08;61.37;;;27.20;;
51288;SDS011;37372;52.294;5.152;2022-12-17T00:46:52;82.50;;;27.15;;
51288;SDS011;37372;52.294;5.152;2022-12-17T00:49:35;82.20;;;26.48;;
51288;SDS011;37372;52.294;5.152;2022-12-17T00:52:20;67.60;;;28.30;;
51288;SDS011;37372;52.294;5.152;2022-12-17T00:55:04;80.53;;;30.23;;
51288;SDS011;37372;52.294;5.152;2022-12-17T00:57:52;72.75;;;28.02;;
51288;SDS011;37372;52.294;5.152;2022-12-17T01:00:37;73.30;;;26.77;;
51288;SDS011;37372;52.294;5.152;2022-12-17T01:03:21;73.13;;;27.00;;
51288;SDS011;37372;52.294;5.152;2022-12-17T01:06:05;64.30;;;26.27;;
51288;SDS011;37372;52.294;5.152;2022-12-17T01:08:49;69.93;;;28.77;;
51288;SDS011;37372;52.294;5.152;2022-12-17T01:11:33;65.07;;;26.92;;
51288;SDS011;37372;52.294;5.152;2022-12-17T01:14:17;68.68;;;29.73;;
51288;SDS011;37372;52.294;5.152;2022-12-17T01:17:01;70.03;;;29.13;;
51288;SDS011;37372;52.294;5.152;2022-12-17T01:19:45;72.80;;;28.33;;
51288;SDS011;37372;52.294;5.152;2022-12-17T01:22:29;65.28;;;29.00;;
51288;SDS011;37372;52.294;5.152;2022-12-17T01:25:13;66.50;;;28.50;;
51288;SDS011;37372;52.294;5.152;2022-12-17T01:27:58;69.10;;;28.48;;
51288;SDS011;37372;52.294;5.152;2022-12-17T01:30:42;67.15;;;27.75;;
51288;SDS011;37372;52.294;5.152;2022-12-17T01:33:26;62.17;;;25.63;;
51288;SDS011;37372;52.294;5.152;2022-12-17T01:36:10;68.53;;;27.45;;
51288;SDS011;37372;52.294;5.152;2022-12-17T01:38:54;69.05;;;28.02;;
51288;SDS011;37372;52.294;5.152;2022-12-17T01:41:38;70.38;;;28.95;;
51288;SDS011;37372;52.294;5.152;2022-12-17T01:47:21;63.70;;;27.77;;
51288;SDS011;37372;52.294;5.152;2022-12-17T01:50:38;69.00;;;29.10;;
51288;SDS011;37372;52.294;5.152;2022-12-17T01:53:28;65.68;;;27.38;;
51288;SDS011;37372;52.294;5.152;2022-12-17T01:56:17;68.95;;;29.42;;
51288;SDS011;37372;52.294;5.152;2022-12-17T01:59:01;62.65;;;25.40;;
51288;SDS011;37372;52.294;5.152;2022-12-17T02:01:46;71.15;;;27.25;;
51288;SDS011;37372;52.294;5.152;2022-12-17T02:04:30;72.80;;;30.17;;
51288;SDS011;37372;52.294;5.152;2022-12-17T02:10:25;62.15;;;28.33;;
51288;SDS011;37372;52.294;5.152;2022-12-17T02:13:31;75.60;;;30.98;;
51288;SDS011;37372;52.294;5.152;2022-12-17T02:16:29;66.88;;;29.30;;
51288;SDS011;37372;52.294;5.152;2022-12-17T02:19:30;73.22;;;29.90;;
51288;SDS011;37372;52.294;5.152;2022-12-17T02:22:34;61.13;;;28.33;;
51288;SDS011;37372;52.294;5.152;2022-12-17T02:25:48;76.22;;;28.38;;
51288;SDS011;37372;52.294;5.152;2022-12-17T02:28:38;66.90;;;29.65;;
51288;SDS011;37372;52.294;5.152;2022-12-17T02:31:25;69.30;;;29.85;;
51288;SDS011;37372;52.294;5.152;2022-12-17T02:34:12;60.25;;;27.67;;
51288;SDS011;37372;52.294;5.152;2022-12-17T02:36:56;60.35;;;25.50;;
51288;SDS011;37372;52.294;5.152;2022-12-17T02:39:40;61.38;;;27.23;;
51288;SDS011;37372;52.294;5.152;2022-12-17T02:42:23;57.40;;;25.08;;
51288;SDS011;37372;52.294;5.152;2022-12-17T02:45:08;59.08;;;24.90;;
51288;SDS011;37372;52.294;5.152;2022-12-17T02:47:52;59.33;;;26.55;;
51288;SDS011;37372;52.294;5.152;2022-12-17T02:50:37;61.03;;;26.95;;
51288;SDS011;37372;52.294;5.152;2022-12-17T02:53:21;61.42;;;25.25;;
51288;SDS011;37372;52.294;5.152;2022-12-17T02:56:05;59.65;;;25.67;;
51288;SDS011;37372;52.294;5.152;2022-12-17T02:58:49;56.05;;;22.15;;
51288;SDS011;37372;52.294;5.152;2022-12-17T03:01:33;64.72;;;27.13;;
51288;SDS011;37372;52.294;5.152;2022-12-17T03:04:17;63.28;;;27.48;;
51288;SDS011;37372;52.294;5.152;2022-12-17T03:07:01;58.25;;;25.80;;
51288;SDS011;37372;52.294;5.152;2022-12-17T03:09:45;64.80;;;28.08;;
51288;SDS011;37372;52.294;5.152;2022-12-17T03:12:28;65.47;;;28.63;;
51288;SDS011;37372;52.294;5.152;2022-12-17T03:15:12;66.28;;;27.55;;
51288;SDS011;37372;52.294;5.152;2022-12-17T03:17:56;68.90;;;29.42;;
51288;SDS011;37372;52.294;5.152;2022-12-17T03:20:40;57.08;;;26.90;;
51288;SDS011;37372;52.294;5.152;2022-12-17T03:23:24;64.40;;;27.77;;
51288;SDS011;37372;52.294;5.152;2022-12-17T03:26:08;62.70;;;27.60;;
51288;SDS011;37372;52.294;5.152;2022-12-17T03:28:52;64.65;;;25.40;;
51288;SDS011;37372;52.294;5.152;2022-12-17T03:31:36;66.68;;;27.33;;
51288;SDS011;37372;52.294;5.152;2022-12-17T03:34:20;63.80;;;25.73;;
51288;SDS011;37372;52.294;5.152;2022-12-17T03:37:04;64.82;;;28.58;;
51288;SDS011;37372;52.294;5.152;2022-12-17T03:39:48;66.82;;;28.40;;
51288;SDS011;37372;52.294;5.152;2022-12-17T03:42:32;66.60;;;28.08;;
51288;SDS011;37372;52.294;5.152;2022-12-17T03:45:16;67.85;;;29.70;;
51288;SDS011;37372;52.294;5.152;2022-12-17T03:48:12;66.35;;;26.42;;
51288;SDS011;37372;52.294;5.152;2022-12-17T03:50:57;76.53;;;30.42;;
51288;SDS011;37372;52.294;5.152;2022-12-17T03:53:42;66.07;;;27.95;;
51288;SDS011;37372;52.294;5.152;2022-12-17T03:56:26;63.70;;;28.05;;
51288;SDS011;37372;52.294;5.152;2022-12-17T03:59:11;60.92;;;26.98;;
51288;SDS011;37372;52.294;5.152;2022-12-17T04:01:55;71.40;;;28.90;;
51288;SDS011;37372;52.294;5.152;2022-12-17T04:04:39;65.80;;;27.88;;
51288;SDS011;37372;52.294;5.152;2022-12-17T04:07:23;69.30;;;27.73;;
51288;SDS011;37372;52.294;5.152;2022-12-17T04:10:08;71.32;;;28.75;;
51288;SDS011;37372;52.294;5.152;2022-12-17T04:12:53;61.67;;;25.25;;
51288;SDS011;37372;52.294;5.152;2022-12-17T04:15:36;65.43;;;29.02;;
51288;SDS011;37372;52.294;5.152;2022-12-17T04:18:21;69.40;;;28.20;;
51288;SDS011;37372;52.294;5.152;2022-12-17T04:21:05;65.40;;;28.75;;
51288;SDS011;37372;52.294;5.152;2022-12-17T04:23:49;68.90;;;28.20;;
51288;SDS011;37372;52.294;5.152;2022-12-17T04:26:33;65.55;;;28.63;;
51288;SDS011;37372;52.294;5.152;2022-12-17T04:29:17;60.40;;;28.30;;
51288;SDS011;37372;52.294;5.152;2022-12-17T04:32:00;69.75;;;28.33;;
51288;SDS011;37372;52.294;5.152;2022-12-17T04:34:44;62.67;;;28.35;;
51288;SDS011;37372;52.294;5.152;2022-12-17T04:37:28;61.67;;;26.48;;
51288;SDS011;37372;52.294;5.152;2022-12-17T04:40:12;63.28;;;27.08;;
51288;SDS011;37372;52.294;5.152;2022-12-17T04:43:03;63.35;;;27.60;;
51288;SDS011;37372;52.294;5.152;2022-12-17T04:45:51;62.92;;;27.65;;
51288;SDS011;37372;52.294;5.152;2022-12-17T04:48:35;62.05;;;27.27;;
51288;SDS011;37372;52.294;5.152;2022-12-17T04:51:19;57.42;;;26.50;;
51288;SDS011;37372;52.294;5.152;2022-12-17T04:54:03;63.08;;;27.73;;
51288;SDS011;37372;52.294;5.152;2022-12-17T04:56:47;71.20;;;31.17;;
51288;SDS011;37372;52.294;5.152;2022-12-17T04:59:34;68.78;;;30.13;;
51288;SDS011;37372;52.294;5.152;2022-12-17T05:02:18;63.33;;;28.63;;
51288;SDS011;37372;52.294;5.152;2022-12-17T05:05:02;65.88;;;31.00;;
51288;SDS011;37372;52.294;5.152;2022-12-17T05:07:46;64.60;;;29.70;;
51288;SDS011;37372;52.294;5.152;2022-12-17T05:10:30;72.32;;;28.33;;
51288;SDS011;37372;52.294;5.152;2022-12-17T05:13:14;67.90;;;27.10;;
51288;SDS011;37372;52.294;5.152;2022-12-17T05:15:58;72.07;;;30.15;;
51288;SDS011;37372;52.294;5.152;2022-12-17T05:18:42;65.25;;;28.98;;
51288;SDS011;37372;52.294;5.152;2022-12-17T05:21:26;71.57;;;27.95;;
51288;SDS011;37372;52.294;5.152;2022-12-17T05:24:10;61.10;;;27.33;;
51288;SDS011;37372;52.294;5.152;2022-12-17T05:26:54;68.80;;;29.48;;
51288;SDS011;37372;52.294;5.152;2022-12-17T05:29:38;66.75;;;28.63;;
51288;SDS011;37372;52.294;5.152;2022-12-17T05:32:22;64.75;;;29.08;;
51288;SDS011;37372;52.294;5.152;2022-12-17T05:35:07;66.45;;;29.08;;
51288;SDS011;37372;52.294;5.152;2022-12-17T05:37:52;58.83;;;26.70;;
51288;SDS011;37372;52.294;5.152;2022-12-17T05:40:36;68.30;;;29.60;;
51288;SDS011;37372;52.294;5.152;2022-12-17T05:43:20;70.47;;;31.77;;
51288;SDS011;37372;52.294;5.152;2022-12-17T05:46:04;69.10;;;30.27;;
51288;SDS011;37372;52.294;5.152;2022-12-17T05:48:48;66.18;;;30.30;;
51288;SDS011;37372;52.294;5.152;2022-12-17T05:51:32;72.63;;;29.20;;
51288;SDS011;37372;52.294;5.152;2022-12-17T05:54:16;64.75;;;31.75;;
51288;SDS011;37372;52.294;5.152;2022-12-17T05:57:00;70.15;;;32.42;;
51288;SDS011;37372;52.294;5.152;2022-12-17T05:59:44;68.93;;;31.88;;
51288;SDS011;37372;52.294;5.152;2022-12-17T06:02:28;66.87;;;30.60;;
51288;SDS011;37372;52.294;5.152;2022-12-17T06:05:12;74.43;;;32.03;;
51288;SDS011;37372;52.294;5.152;2022-12-17T06:08:05;61.75;;;29.73;;
51288;SDS011;37372;52.294;5.152;2022-12-17T06:10:51;62.40;;;28.77;;
51288;SDS011;37372;52.294;5.152;2022-12-17T06:13:35;69.55;;;29.33;;
51288;SDS011;37372;52.294;5.152;2022-12-17T06:16:19;68.65;;;30.58;;
51288;SDS011;37372;52.294;5.152;2022-12-17T06:19:03;66.50;;;31.13;;
51288;SDS011;37372;52.294;5.152;2022-12-17T06:22:04;67.93;;;30.10;;
51288;SDS011;37372;52.294;5.152;2022-12-17T06:24:48;62.42;;;30.35;;
51288;SDS011;37372;52.294;5.152;2022-12-17T06:27:32;64.78;;;28.67;;
51288;SDS011;37372;52.294;5.152;2022-12-17T06:30:16;65.30;;;29.23;;
51288;SDS011;37372;52.294;5.152;2022-12-17T06:33:06;69.82;;;30.15;;
51288;SDS011;37372;52.294;5.152;2022-12-17T06:35:53;69.72;;;29.42;;
51288;SDS011;37372;52.294;5.152;2022-12-17T06:38:55;66.43;;;29.80;;
51288;SDS011;37372;52.294;5.152;2022-12-17T06:41:39;60.35;;;27.52;;
51288;SDS011;37372;52.294;5.152;2022-12-17T06:44:23;66.18;;;28.20;;
51288;SDS011;37372;52.294;5.152;2022-12-17T06:47:07;68.47;;;32.40;;
51288;SDS011;37372;52.294;5.152;2022-12-17T06:49:51;71.55;;;31.42;;
51288;SDS011;37372;52.294;5.152;2022-12-17T06:52:35;69.18;;;31.58;;
51288;SDS011;37372;52.294;5.152;2022-12-17T06:55:19;64.93;;;28.63;;
51288;SDS011;37372;52.294;5.152;2022-12-17T06:58:02;67.30;;;31.88;;
51288;SDS011;37372;52.294;5.152;2022-12-17T07:01:06;62.38;;;29.45;;
51288;SDS011;37372;52.294;5.152;2022-12-17T07:03:50;62.00;;;29.50;;
51288;SDS011;37372;52.294;5.152;2022-12-17T07:06:36;69.68;;;31.77;;
51288;SDS011;37372;52.294;5.152;2022-12-17T07:09:20;65.07;;;31.98;;
51288;SDS011;37372;52.294;5.152;2022-12-17T07:12:04;64.70;;;29.60;;
51288;SDS011;37372;52.294;5.152;2022-12-17T07:14:48;66.28;;;31.33;;
51288;SDS011;37372;52.294;5.152;2022-12-17T07:17:32;63.08;;;30.17;;
51288;SDS011;37372;52.294;5.152;2022-12-17T07:20:16;63.95;;;31.10;;
51288;SDS011;37372;52.294;5.152;2022-12-17T07:23:00;63.08;;;30.80;;
51288;SDS011;37372;52.294;5.152;2022-12-17T07:25:44;65.95;;;29.75;;
51288;SDS011;37372;52.294;5.152;2022-12-17T07:28:28;67.85;;;30.08;;
51288;SDS011;37372;52.294;5.152;2022-12-17T07:31:12;75.82;;;31.30;;
51288;SDS011;37372;52.294;5.152;2022-12-17T07:33:56;74.95;;;32.63;;
51288;SDS011;37372;52.294;5.152;2022-12-17T07:36:40;74.60;;;31.98;;
51288;SDS011;37372;52.294;5.152;2022-12-17T07:39:24;70.07;;;31.83;;
51288;SDS011;37372;52.294;5.152;2022-12-17T07:42:08;56.53;;;29.63;;
51288;SDS011;37372;52.294;5.152;2022-12-17T07:44:52;63.60;;;30.08;;
51288;SDS011;37372;52.294;5.152;2022-12-17T07:47:36;60.25;;;28.70;;
51288;SDS011;37372;52.294;5.152;2022-12-17T07:50:23;63.00;;;30.35;;
51288;SDS011;37372;52.294;5.152;2022-12-17T07:53:07;66.82;;;31.58;;
51288;SDS011;37372;52.294;5.152;2022-12-17T07:55:51;68.60;;;33.88;;
51288;SDS011;37372;52.294;5.152;2022-12-17T07:58:35;67.82;;;29.80;;
51288;SDS011;37372;52.294;5.152;2022-12-17T08:01:19;66.55;;;32.28;;
51288;SDS011;37372;52.294;5.152;2022-12-17T08:04:03;64.72;;;29.63;;
51288;SDS011;37372;52.294;5.152;2022-12-17T08:06:47;72.97;;;32.25;;
51288;SDS011;37372;52.294;5.152;2022-12-17T08:09:32;78.57;;;34.33;;
51288;SDS011;37372;52.294;5.152;2022-12-17T08:12:20;71.88;;;30.67;;
51288;SDS011;37372;52.294;5.152;2022-12-17T08:15:04;72.38;;;33.25;;
51288;SDS011;37372;52.294;5.152;2022-12-17T08:17:48;74.68;;;33.38;;
51288;SDS011;37372;52.294;5.152;2022-12-17T08:20:32;80.07;;;33.80;;
51288;SDS011;37372;52.294;5.152;2022-12-17T08:23:16;67.38;;;31.10;;
51288;SDS011;37372;52.294;5.152;2022-12-17T08:26:00;76.72;;;34.90;;
51288;SDS011;37372;52.294;5.152;2022-12-17T08:28:44;76.47;;;31.95;;
51288;SDS011;37372;52.294;5.152;2022-12-17T08:31:28;86.20;;;35.47;;
51288;SDS011;37372;52.294;5.152;2022-12-17T08:34:12;72.88;;;34.05;;
51288;SDS011;37372;52.294;5.152;2022-12-17T08:36:56;76.95;;;35.47;;
51288;SDS011;37372;52.294;5.152;2022-12-17T08:39:40;69.88;;;32.80;;
51288;SDS011;37372;52.294;5.152;2022-12-17T08:42:34;74.13;;;33.60;;
51288;SDS011;37372;52.294;5.152;2022-12-17T08:45:18;76.65;;;35.10;;
51288;SDS011;37372;52.294;5.152;2022-12-17T08:48:03;77.45;;;34.75;;
51288;SDS011;37372;52.294;5.152;2022-12-17T08:50:48;71.47;;;33.83;;
51288;SDS011;37372;52.294;5.152;2022-12-17T08:53:32;75.35;;;32.65;;
51288;SDS011;37372;52.294;5.152;2022-12-17T08:56:16;87.88;;;35.63;;
51288;SDS011;37372;52.294;5.152;2022-12-17T08:59:00;82.83;;;36.37;;
51288;SDS011;37372;52.294;5.152;2022-12-17T09:01:44;87.82;;;33.63;;
51288;SDS011;37372;52.294;5.152;2022-12-17T09:04:28;78.20;;;35.22;;
51288;SDS011;37372;52.294;5.152;2022-12-17T09:07:12;75.72;;;35.65;;
51288;SDS011;37372;52.294;5.152;2022-12-17T09:09:56;77.00;;;35.97;;
51288;SDS011;37372;52.294;5.152;2022-12-17T09:12:40;75.43;;;34.47;;
51288;SDS011;37372;52.294;5.152;2022-12-17T09:15:24;72.00;;;33.58;;
51288;SDS011;37372;52.294;5.152;2022-12-17T09:18:08;78.20;;;32.60;;
51288;SDS011;37372;52.294;5.152;2022-12-17T09:20:53;74.73;;;34.63;;
51288;SDS011;37372;52.294;5.152;2022-12-17T09:23:37;86.65;;;34.90;;
51288;SDS011;37372;52.294;5.152;2022-12-17T09:26:21;73.57;;;34.05;;
51288;SDS011;37372;52.294;5.152;2022-12-17T09:29:05;75.80;;;33.65;;
51288;SDS011;37372;52.294;5.152;2022-12-17T09:31:49;87.30;;;35.60;;
51288;SDS011;37372;52.294;5.152;2022-12-17T09:34:33;83.75;;;35.05;;
51288;SDS011;37372;52.294;5.152;2022-12-17T09:37:17;89.07;;;36.30;;
51288;SDS011;37372;52.294;5.152;2022-12-17T09:40:01;91.15;;;34.53;;
51288;SDS011;37372;52.294;5.152;2022-12-17T09:43:00;81.37;;;32.27;;
51288;SDS011;37372;52.294;5.152;2022-12-17T09:45:52;85.95;;;35.78;;
51288;SDS011;37372;52.294;5.152;2022-12-17T09:49:11;78.10;;;31.92;;
51288;SDS011;37372;52.294;5.152;2022-12-17T09:52:00;79.88;;;33.67;;
51288;SDS011;37372;52.294;5.152;2022-12-17T09:54:47;73.43;;;32.85;;
51288;SDS011;37372;52.294;5.152;2022-12-17T09:57:34;76.97;;;32.10;;
51288;SDS011;37372;52.294;5.152;2022-12-17T10:00:21;76.60;;;32.83;;
51288;SDS011;37372;52.294;5.152;2022-12-17T10:03:14;84.18;;;34.00;;
51288;SDS011;37372;52.294;5.152;2022-12-17T10:06:01;80.20;;;33.75;;
51288;SDS011;37372;52.294;5.152;2022-12-17T10:08:52;76.53;;;33.13;;
51288;SDS011;37372;52.294;5.152;2022-12-17T10:11:40;70.82;;;32.78;;
51288;SDS011;37372;52.294;5.152;2022-12-17T10:14:25;78.97;;;33.28;;
51288;SDS011;37372;52.294;5.152;2022-12-17T10:17:17;75.50;;;33.85;;
51288;SDS011;37372;52.294;5.152;2022-12-17T10:20:13;78.60;;;33.03;;
51288;SDS011;37372;52.294;5.152;2022-12-17T10:23:03;84.00;;;32.25;;
51288;SDS011;37372;52.294;5.152;2022-12-17T10:25:52;75.50;;;31.83;;
51288;SDS011;37372;52.294;5.152;2022-12-17T10:28:37;80.88;;;33.13;;
51288;SDS011;37372;52.294;5.152;2022-12-17T10:31:22;74.30;;;32.67;;
51288;SDS011;37372;52.294;5.152;2022-12-17T10:34:15;77.13;;;31.40;;
51288;SDS011;37372;52.294;5.152;2022-12-17T10:37:01;70.00;;;32.83;;
51288;SDS011;37372;52.294;5.152;2022-12-17T10:39:53;88.65;;;36.67;;
51288;SDS011;37372;52.294;5.152;2022-12-17T10:42:42;81.60;;;34.03;;
51288;SDS011;37372;52.294;5.152;2022-12-17T10:48:18;76.80;;;33.15;;
51288;SDS011;37372;52.294;5.152;2022-12-17T10:51:05;76.32;;;34.45;;
51288;SDS011;37372;52.294;5.152;2022-12-17T10:53:59;78.23;;;34.87;;
51288;SDS011;37372;52.294;5.152;2022-12-17T10:56:53;78.72;;;33.72;;
51288;SDS011;37372;52.294;5.152;2022-12-17T10:59:41;76.28;;;32.30;;
51288;SDS011;37372;52.294;5.152;2022-12-17T11:02:26;68.38;;;33.08;;
51288;SDS011;37372;52.294;5.152;2022-12-17T11:05:13;69.65;;;30.88;;
51288;SDS011;37372;52.294;5.152;2022-12-17T11:08:11;78.25;;;33.17;;
51288;SDS011;37372;52.294;5.152;2022-12-17T11:10:58;80.10;;;33.50;;
51288;SDS011;37372;52.294;5.152;2022-12-17T11:13:45;75.25;;;33.40;;
51288;SDS011;37372;52.294;5.152;2022-12-17T11:16:51;72.90;;;32.47;;
51288;SDS011;37372;52.294;5.152;2022-12-17T11:19:38;71.85;;;32.45;;
51288;SDS011;37372;52.294;5.152;2022-12-17T11:25:23;77.32;;;34.78;;
51288;SDS011;37372;52.294;5.152;2022-12-17T11:28:21;78.50;;;33.08;;
51288;SDS011;37372;52.294;5.152;2022-12-17T11:36:53;75.93;;;30.38;;
51288;SDS011;37372;52.294;5.152;2022-12-17T11:40:20;82.40;;;33.75;;
51288;SDS011;37372;52.294;5.152;2022-12-17T11:43:13;81.43;;;37.08;;
51288;SDS011;37372;52.294;5.152;2022-12-17T11:51:52;78.15;;;32.10;;
51288;SDS011;37372;52.294;5.152;2022-12-17T11:54:59;91.55;;;33.88;;
51288;SDS011;37372;52.294;5.152;2022-12-17T11:57:54;75.50;;;33.10;;
51288;SDS011;37372;52.294;5.152;2022-12-17T12:00:58;75.00;;;31.42;;
51288;SDS011;37372;52.294;5.152;2022-12-17T12:06:57;76.68;;;31.52;;
51288;SDS011;37372;52.294;5.152;2022-12-17T12:09:58;67.28;;;33.47;;
51288;SDS011;37372;52.294;5.152;2022-12-17T12:13:08;77.65;;;31.08;;
51288;SDS011;37372;52.294;5.152;2022-12-17T12:22:07;72.07;;;31.80;;
51288;SDS011;37372;52.294;5.152;2022-12-17T12:34:10;72.38;;;31.17;;
51288;SDS011;37372;52.294;5.152;2022-12-17T12:36:59;75.00;;;32.97;;
51288;SDS011;37372;52.294;5.152;2022-12-17T12:39:48;77.90;;;33.13;;
51288;SDS011;37372;52.294;5.152;2022-12-17T12:42:36;78.88;;;30.65;;
51288;SDS011;37372;52.294;5.152;2022-12-17T12:48:19;76.25;;;32.47;;
51288;SDS011;37372;52.294;5.152;2022-12-17T13:03:31;77.72;;;29.70;;
51288;SDS011;37372;52.294;5.152;2022-12-17T13:11:40;78.53;;;31.88;;
51288;SDS011;37372;52.294;5.152;2022-12-17T13:16:54;73.78;;;29.70;;
51288;SDS011;37372;52.294;5.152;2022-12-17T13:21:56;66.00;;;30.00;;
51288;SDS011;37372;52.294;5.152;2022-12-17T13:24:34;68.20;;;27.30;;
51288;SDS011;37372;52.294;5.152;2022-12-17T13:26:59;62.78;;;28.55;;
51288;SDS011;37372;52.294;5.152;2022-12-17T13:29:30;67.72;;;29.58;;
51288;SDS011;37372;52.294;5.152;2022-12-17T13:32:00;67.28;;;29.13;;
51288;SDS011;37372;52.294;5.152;2022-12-17T13:43:00;68.75;;;28.27;;
51288;SDS011;37372;52.294;5.152;2022-12-17T13:45:26;73.82;;;28.35;;
51288;SDS011;37372;52.294;5.152;2022-12-17T13:47:56;65.25;;;29.05;;
51288;SDS011;37372;52.294;5.152;2022-12-17T13:50:27;65.80;;;27.10;;
51288;SDS011;37372;52.294;5.152;2022-12-17T13:52:54;70.20;;;30.35;;
51288;SDS011;37372;52.294;5.152;2022-12-17T13:55:20;63.97;;;27.92;;
51288;SDS011;37372;52.294;5.152;2022-12-17T13:57:51;73.45;;;29.23;;
51288;SDS011;37372;52.294;5.152;2022-12-17T14:00:20;60.88;;;26.73;;
51288;SDS011;37372;52.294;5.152;2022-12-17T14:02:56;72.93;;;30.27;;
51288;SDS011;37372;52.294;5.152;2022-12-17T14:05:35;64.18;;;26.83;;
51288;SDS011;37372;52.294;5.152;2022-12-17T14:08:02;65.70;;;27.38;;
51288;SDS011;37372;52.294;5.152;2022-12-17T14:10:29;67.18;;;28.48;;
51288;SDS011;37372;52.294;5.152;2022-12-17T14:13:00;73.60;;;28.77;;
51288;SDS011;37372;52.294;5.152;2022-12-17T14:15:30;63.60;;;27.65;;
51288;SDS011;37372;52.294;5.152;2022-12-17T14:17:56;64.03;;;28.92;;
51288;SDS011;37372;52.294;5.152;2022-12-17T14:20:30;68.75;;;28.77;;
51288;SDS011;37372;52.294;5.152;2022-12-17T14:23:14;63.67;;;27.80;;
51288;SDS011;37372;52.294;5.152;2022-12-17T14:25:52;61.60;;;27.17;;
51288;SDS011;37372;52.294;5.152;2022-12-17T14:30:47;70.10;;;29.83;;
51288;SDS011;37372;52.294;5.152;2022-12-17T14:35:51;67.13;;;28.08;;
51288;SDS011;37372;52.294;5.152;2022-12-17T14:38:19;67.78;;;28.27;;
51288;SDS011;37372;52.294;5.152;2022-12-17T14:40:44;63.00;;;25.65;;
51288;SDS011;37372;52.294;5.152;2022-12-17T14:43:10;76.50;;;29.98;;
51288;SDS011;37372;52.294;5.152;2022-12-17T14:45:37;69.95;;;29.48;;
51288;SDS011;37372;52.294;5.152;2022-12-17T14:48:24;75.50;;;28.90;;
51288;SDS011;37372;52.294;5.152;2022-12-17T14:51:19;65.00;;;28.45;;
51288;SDS011;37372;52.294;5.152;2022-12-17T14:53:47;70.78;;;30.23;;
51288;SDS011;37372;52.294;5.152;2022-12-17T14:56:20;75.70;;;30.00;;
51288;SDS011;37372;52.294;5.152;2022-12-17T14:58:47;71.28;;;29.23;;
51288;SDS011;37372;52.294;5.152;2022-12-17T15:01:12;70.10;;;29.33;;
51288;SDS011;37372;52.294;5.152;2022-12-17T15:03:39;73.25;;;31.00;;
51288;SDS011;37372;52.294;5.152;2022-12-17T15:06:07;77.68;;;32.47;;
51288;SDS011;37372;52.294;5.152;2022-12-17T15:08:35;69.25;;;28.85;;
51288;SDS011;37372;52.294;5.152;2022-12-17T15:11:05;71.10;;;30.45;;
51288;SDS011;37372;52.294;5.152;2022-12-17T15:13:30;71.50;;;30.45;;
51288;SDS011;37372;52.294;5.152;2022-12-17T15:15:56;83.28;;;30.02;;
51288;SDS011;37372;52.294;5.152;2022-12-17T15:18:21;77.32;;;29.20;;
51288;SDS011;37372;52.294;5.152;2022-12-17T15:20:47;73.97;;;30.70;;
51288;SDS011;37372;52.294;5.152;2022-12-17T15:23:16;81.22;;;31.58;;
51288;SDS011;37372;52.294;5.152;2022-12-17T15:25:44;76.25;;;33.42;;
51288;SDS011;37372;52.294;5.152;2022-12-17T15:28:10;83.65;;;31.98;;
51288;SDS011;37372;52.294;5.152;2022-12-17T15:30:36;76.43;;;30.02;;
51288;SDS011;37372;52.294;5.152;2022-12-17T15:33:03;74.63;;;32.03;;
51288;SDS011;37372;52.294;5.152;2022-12-17T15:35:32;73.30;;;32.00;;
51288;SDS011;37372;52.294;5.152;2022-12-17T15:37:58;78.43;;;29.92;;
51288;SDS011;37372;52.294;5.152;2022-12-17T15:40:23;78.63;;;31.30;;
51288;SDS011;37372;52.294;5.152;2022-12-17T15:42:49;85.40;;;32.33;;
51288;SDS011;37372;52.294;5.152;2022-12-17T15:45:33;77.57;;;30.02;;
51288;SDS011;37372;52.294;5.152;2022-12-17T15:47:58;84.53;;;31.25;;
51288;SDS011;37372;52.294;5.152;2022-12-17T15:50:24;76.68;;;30.70;;
51288;SDS011;37372;52.294;5.152;2022-12-17T15:52:49;81.93;;;30.52;;
51288;SDS011;37372;52.294;5.152;2022-12-17T15:55:14;81.15;;;32.15;;
51288;SDS011;37372;52.294;5.152;2022-12-17T15:57:42;74.90;;;30.70;;
51288;SDS011;37372;52.294;5.152;2022-12-17T16:00:07;81.80;;;29.40;;
51288;SDS011;37372;52.294;5.152;2022-12-17T16:02:33;79.15;;;29.88;;
51288;SDS011;37372;52.294;5.152;2022-12-17T16:04:59;77.60;;;31.38;;
51288;SDS011;37372;52.294;5.152;2022-12-17T16:07:25;74.55;;;29.13;;
51288;SDS011;37372;52.294;5.152;2022-12-17T16:09:50;71.68;;;28.13;;
51288;SDS011;37372;52.294;5.152;2022-12-17T16:12:15;77.53;;;29.48;;
51288;SDS011;37372;52.294;5.152;2022-12-17T16:14:41;82.38;;;29.38;;
51288;SDS011;37372;52.294;5.152;2022-12-17T16:17:06;73.43;;;29.92;;
51288;SDS011;37372;52.294;5.152;2022-12-17T16:19:32;83.60;;;30.15;;
51288;SDS011;37372;52.294;5.152;2022-12-17T16:21:57;72.22;;;29.40;;
51288;SDS011;37372;52.294;5.152;2022-12-17T16:24:23;70.63;;;30.23;;
51288;SDS011;37372;52.294;5.152;2022-12-17T16:26:48;88.32;;;30.90;;
51288;SDS011;37372;52.294;5.152;2022-12-17T16:29:13;70.40;;;29.13;;
51288;SDS011;37372;52.294;5.152;2022-12-17T16:31:39;82.88;;;29.65;;
51288;SDS011;37372;52.294;5.152;2022-12-17T16:34:06;77.93;;;31.35;;
51288;SDS011;37372;52.294;5.152;2022-12-17T16:36:33;77.68;;;29.42;;
51288;SDS011;37372;52.294;5.152;2022-12-17T16:38:59;90.28;;;30.15;;
51288;SDS011;37372;52.294;5.152;2022-12-17T16:41:24;88.88;;;34.22;;
51288;SDS011;37372;52.294;5.152;2022-12-17T16:43:50;83.55;;;32.92;;
51288;SDS011;37372;52.294;5.152;2022-12-17T16:51:16;72.93;;;26.33;;
51288;SDS011;37372;52.294;5.152;2022-12-17T16:53:43;77.32;;;30.27;;
51288;SDS011;37372;52.294;5.152;2022-12-17T16:56:13;78.40;;;29.88;;
51288;SDS011;37372;52.294;5.152;2022-12-17T16:58:40;79.85;;;29.92;;
51288;SDS011;37372;52.294;5.152;2022-12-17T17:01:05;75.90;;;28.48;;
51288;SDS011;37372;52.294;5.152;2022-12-17T17:03:30;83.57;;;31.65;;
51288;SDS011;37372;52.294;5.152;2022-12-17T17:05:58;89.50;;;33.00;;
51288;SDS011;37372;52.294;5.152;2022-12-17T17:08:25;79.97;;;34.33;;
51288;SDS011;37372;52.294;5.152;2022-12-17T17:10:50;88.22;;;35.15;;
51288;SDS011;37372;52.294;5.152;2022-12-17T17:13:15;113.05;;;44.85;;